Time;durP1;ratioP1;P1;durP2;ratioP2;P2;SDS_P1;SDS_P2;PMS_P1;PMS_P2;Temp;Humidity;BMP_temperature;BMP_pressure;BME280_temperature;BME280_humidity;BME280_pressure;Samples;Min_cycle;Max_cycle;Signal;HPM_P1;HPM_P2
2022/05/09 00:01:20;;;;;;;21.73;2.53;;;;;;;21.79;52.70;100450.44;7312676;19;158742;-38
2022/05/09 00:03:45;;;;;;;17.42;2.53;;;;;;;21.79;53.50;100445.22;7311881;19;159385;-37
2022/05/09 00:06:11;;;;;;;22.05;2.72;;;;;;;21.81;52.76;100448.56;7311544;19;129567;-38
2022/05/09 00:08:37;;;;;;;32.83;4.07;;;;;;;21.81;53.65;100447.72;7314226;19;129691;-37
2022/05/09 00:11:02;;;;;;;11.10;1.73;;;;;;;21.82;53.88;100444.97;7312756;19;130251;-37
2022/05/09 00:13:28;;;;;;;21.08;2.95;;;;;;;21.80;52.88;100441.63;7314205;19;130786;-36
2022/05/09 00:15:53;;;;;;;23.73;3.05;;;;;;;21.85;53.36;100443.88;7311096;19;154556;-40
2022/05/09 00:18:20;;;;;;;20.33;2.67;;;;;;;21.80;53.68;100444.25;7313737;19;134834;-37
2022/05/09 00:20:47;;;;;;;7.57;1.50;;;;;;;21.78;53.24;100445.34;7314399;19;130569;-38
2022/05/09 00:23:12;;;;;;;23.50;3.00;;;;;;;21.81;53.68;100438.06;7314589;19;129463;-38
2022/05/09 00:25:37;;;;;;;17.17;2.72;;;;;;;21.80;53.70;100441.63;7311601;19;154371;-40
2022/05/09 00:28:03;;;;;;;20.40;2.75;;;;;;;21.77;53.01;100441.88;7313212;19;129220;-36
2022/05/09 00:30:28;;;;;;;32.05;4.40;;;;;;;21.77;52.37;100447.09;7311856;19;129337;-37
2022/05/09 00:32:53;;;;;;;21.02;2.67;;;;;;;21.80;53.35;100446.88;7312099;19;157815;-39
2022/05/09 00:35:19;;;;;;;35.72;4.95;;;;;;;21.79;52.87;100445.22;7308584;19;154685;-41
2022/05/09 00:37:44;;;;;;;20.20;2.60;;;;;;;21.70;53.44;100432.00;7311776;19;154583;-38
2022/05/09 00:40:12;;;;;;;19.15;2.22;;;;;;;21.71;52.86;100441.50;7311584;19;158540;-37
2022/05/09 00:42:42;;;;;;;25.20;2.95;;;;;;;21.81;53.10;100452.94;7312431;19;130959;-40
2022/05/09 00:45:09;;;;;;;24.58;3.28;;;;;;;21.71;53.35;100446.72;7311532;19;130071;-40
2022/05/09 00:47:34;;;;;;;25.15;3.33;;;;;;;21.79;53.08;100460.91;7312186;19;128942;-38
2022/05/09 00:50:04;;;;;;;16.70;2.27;;;;;;;21.81;52.98;100463.41;7311803;19;158450;-36
2022/05/09 00:52:36;;;;;;;18.70;3.10;;;;;;;21.76;53.55;100463.78;7309453;19;131000;-37
2022/05/09 00:55:06;;;;;;;16.85;2.53;;;;;;;21.78;52.89;100459.22;7311349;19;128919;-37
2022/05/09 00:57:36;;;;;;;23.65;3.20;;;;;;;21.79;53.24;100468.78;7311445;19;130391;-37
2022/05/09 01:00:15;;;;;;;11.52;2.25;;;;;;;21.78;53.75;100467.09;7312240;19;129271;-38
2022/05/09 01:02:44;;;;;;;22.73;2.95;;;;;;;21.76;53.13;100463.78;7311880;19;130226;-38
2022/05/09 01:05:12;;;;;;;10.27;1.80;;;;;;;21.75;53.04;100462.06;7310155;19;129827;-38
2022/05/09 01:07:38;;;;;;;24.42;3.00;;;;;;;21.74;52.07;100463.03;7312439;19;129189;-36
2022/05/09 01:10:04;;;;;;;28.47;3.57;;;;;;;21.78;53.04;100454.00;7311059;19;131037;-38
2022/05/09 01:12:32;;;;;;;29.88;3.63;;;;;;;21.77;53.06;100452.34;7310266;19;129480;-38
2022/05/09 01:15:01;;;;;;;12.35;1.98;;;;;;;21.80;53.01;100457.34;7309801;19;129325;-37
2022/05/09 01:17:27;;;;;;;29.55;3.63;;;;;;;21.83;52.98;100456.28;7310339;19;128890;-36
2022/05/09 01:19:55;;;;;;;16.88;2.42;;;;;;;21.77;52.81;100447.09;7312014;19;129319;-38
2022/05/09 01:22:26;;;;;;;18.92;2.58;;;;;;;21.82;53.76;100444.97;7310856;19;129540;-37
2022/05/09 01:24:54;;;;;;;18.38;2.50;;;;;;;21.80;53.69;100452.09;7309674;19;128756;-39
2022/05/09 01:27:19;;;;;;;18.88;2.60;;;;;;;21.78;53.56;100451.38;7312124;19;129926;-37
2022/05/09 01:30:06;;;;;;;9.52;1.75;;;;;;;21.82;52.93;100446.75;7312409;19;129042;-38
2022/05/09 01:32:35;;;;;;;24.23;3.25;;;;;;;21.78;53.42;100454.00;7309558;19;129926;-37
2022/05/09 01:35:50;;;;;;;21.63;3.70;;;;;;;21.77;53.54;100447.09;7309137;19;129006;-40
2022/05/09 01:38:30;;;;;;;24.30;3.38;;;;;;;21.77;53.25;100444.50;7309682;19;129299;-37
2022/05/09 01:40:55;;;;;;;19.30;2.50;;;;;;;21.74;52.88;100447.31;7311216;19;129786;-37
2022/05/09 01:43:33;;;;;;;20.20;2.38;;;;;;;21.76;52.91;100445.47;7310687;19;129502;-39
2022/05/09 01:46:00;;;;;;;17.05;2.40;;;;;;;21.76;52.93;100440.22;7310181;19;129102;-38
2022/05/09 01:51:09;;;;;;;22.08;2.83;;;;;;;21.78;53.40;100446.16;7309609;19;128955;-38
2022/05/09 01:53:34;;;;;;;32.53;4.25;;;;;;;21.79;52.76;100453.06;7310200;19;129650;-37
2022/05/09 01:56:00;;;;;;;23.07;2.83;;;;;;;21.74;52.69;100460.41;7309276;19;155286;-39
2022/05/09 01:58:25;;;;;;;11.65;2.35;;;;;;;21.71;52.75;100458.03;7310106;19;154111;-38
2022/05/09 02:00:50;;;;;;;15.98;2.13;;;;;;;21.65;52.38;100445.41;7309648;19;158655;-40
2022/05/09 02:03:16;;;;;;;23.17;2.78;;;;;;;21.76;53.15;100460.28;7310525;19;130002;-36
2022/05/09 02:05:41;;;;;;;24.67;3.03;;;;;;;21.80;53.15;100451.25;7309679;19;128952;-36
2022/05/09 02:08:07;;;;;;;17.98;2.58;;;;;;;21.84;52.83;100458.78;7310658;19;153989;-37
2022/05/09 02:10:32;;;;;;;23.65;2.97;;;;;;;21.78;53.13;100459.22;7309819;19;141025;-39
2022/05/09 02:12:57;;;;;;;8.87;1.70;;;;;;;21.74;53.28;100457.78;7309367;19;161335;-38
2022/05/09 02:15:24;;;;;;;34.77;4.27;;;;;;;21.74;52.10;100462.19;7306090;19;154349;-40
2022/05/09 02:17:49;;;;;;;24.48;3.15;;;;;;;21.78;53.08;100454.00;7310972;19;128968;-39
2022/05/09 02:20:14;;;;;;;25.25;3.20;;;;;;;21.77;52.77;100461.97;7309400;19;129293;-37
2022/05/09 02:22:40;;;;;;;15.38;2.08;;;;;;;21.76;53.19;100455.06;7309500;19;157347;-38
2022/05/09 02:25:26;;;;;;;12.20;2.20;;;;;;;21.72;51.87;100464.94;7306963;19;129031;-39
2022/05/09 02:27:51;;;;;;;21.15;2.95;;;;;;;21.75;53.45;100466.47;7308954;19;128889;-40
2022/05/09 02:30:18;;;;;;;13.88;2.10;;;;;;;21.74;52.36;100465.66;7311509;19;158278;-37
2022/05/09 02:32:43;;;;;;;;;;;;;;;21.87;52.89;100463.75;7315081;19;130359;-38
2022/05/09 02:35:08;;;;;;;22.93;3.53;;;;;;;21.76;52.57;100450.69;7313248;19;154634;-37
2022/05/09 02:37:33;;;;;;;26.17;3.42;;;;;;;21.70;52.89;100451.13;7314766;19;154366;-38
2022/05/09 02:39:59;;;;;;;23.38;3.10;;;;;;;21.77;53.06;100467.22;7314890;19;159070;-37
2022/05/09 02:42:24;;;;;;;15.68;2.40;;;;;;;21.82;53.33;100465.06;7314672;19;158423;-38
2022/05/09 02:44:50;;;;;;;23.30;3.22;;;;;;;21.79;53.39;100471.38;7314949;19;128833;-40
2022/05/09 02:47:17;;;;;;;19.27;2.58;;;;;;;21.79;52.73;100466.16;7316768;19;130896;-36
2022/05/09 02:49:42;;;;;;;18.90;2.58;;;;;;;21.78;52.81;100464.47;7316485;19;129467;-40
2022/05/09 02:52:08;;;;;;;13.20;2.00;;;;;;;21.76;52.65;100469.00;7312253;19;159227;-40
2022/05/09 02:54:33;;;;;;;21.52;2.80;;;;;;;21.78;52.57;100464.47;7315440;19;129140;-36
2022/05/09 02:56:58;;;;;;;24.77;3.40;;;;;;;21.78;53.39;100471.50;7314268;19;153862;-38
2022/05/09 02:59:24;;;;;;;22.73;3.17;;;;;;;21.82;52.89;100465.06;7316507;19;129916;-37
2022/05/09 03:01:49;;;;;;;17.35;2.38;;;;;;;21.82;53.36;100465.06;7314838;19;158340;-38
2022/05/09 03:06:59;;;;;;;24.33;3.42;;;;;;;21.74;52.96;100467.41;7316098;19;130294;-39
2022/05/09 03:09:24;;;;;;;19.30;2.78;;;;;;;21.77;53.25;100467.22;7316215;19;129341;-37
2022/05/09 03:11:49;;;;;;;14.15;2.10;;;;;;;21.66;52.54;100452.31;7312645;19;158402;-37
2022/05/09 03:14:14;;;;;;;11.25;1.85;;;;;;;21.74;52.75;100465.66;7313597;19;154857;-40
2022/05/09 03:16:40;;;;;;;21.63;2.92;;;;;;;21.79;52.86;100468.78;7312647;19;134946;-37
2022/05/09 03:19:05;;;;;;;26.35;3.35;;;;;;;21.65;52.86;100453.25;7314237;19;158257;-37
2022/05/09 03:21:31;;;;;;;20.67;3.00;;;;;;;21.71;52.21;100471.13;7311701;19;158736;-37
2022/05/09 03:23:56;;;;;;;17.65;2.28;;;;;;;21.79;53.11;100471.38;7314957;19;128793;-37
2022/05/09 03:26:21;;;;;;;17.60;2.23;;;;;;;21.75;52.07;100474.34;7312590;19;153936;-42
2022/05/09 03:28:46;;;;;;;18.88;2.53;;;;;;;21.81;53.00;100485.19;7315441;19;130719;-37
2022/05/09 03:31:13;;;;;;;30.40;3.58;;;;;;;21.79;53.06;100481.00;7312231;19;159191;-37
2022/05/09 03:33:39;;;;;;;32.63;4.03;;;;;;;21.76;51.76;100482.09;7313763;19;131215;-38
2022/05/09 03:36:05;;;;;;;31.33;3.63;;;;;;;21.70;52.32;100471.25;7312762;19;129299;-37
2022/05/09 03:38:30;;;;;;;24.63;3.40;;;;;;;21.76;52.50;100481.22;7314739;19;129084;-39
2022/05/09 03:40:55;;;;;;;32.50;3.90;;;;;;;21.79;52.63;100487.09;7311534;19;129279;-40
2022/05/09 03:43:20;;;;;;;16.42;2.42;;;;;;;21.81;52.72;100485.19;7312765;19;144502;-39
2022/05/09 03:45:50;;;;;;;25.63;3.60;;;;;;;21.77;52.99;100483.75;7312734;19;129115;-37
2022/05/09 03:48:15;;;;;;;16.88;2.42;;;;;;;21.70;53.27;100466.81;7313851;19;129229;-38
2022/05/09 03:50:40;;;;;;;33.58;4.10;;;;;;;21.78;52.53;100479.38;7313180;19;145933;-38
2022/05/09 03:53:06;;;;;;;24.52;3.42;;;;;;;21.70;52.05;100482.53;7312457;19;129754;-40
2022/05/09 03:55:33;;;;;;;39.72;5.43;;;;;;;21.77;52.83;100486.38;7307837;19;154704;-38
2022/05/09 03:57:59;;;;;;;29.00;3.42;;;;;;;21.73;52.56;100479.66;7312620;19;130270;-38
2022/05/09 04:00:26;;;;;;;45.08;5.28;;;;;;;21.75;53.03;100484.81;7311753;19;130533;-38
2022/05/09 04:02:52;;;;;;;8.30;1.92;;;;;;;21.76;52.88;100487.34;7312899;19;129165;-39
2022/05/09 04:05:18;;;;;;;28.63;3.83;;;;;;;21.71;51.69;100489.44;7309751;19;130289;-37
2022/05/09 04:07:46;;;;;;;18.60;2.60;;;;;;;21.70;52.41;100479.09;7313949;19;129207;-38
2022/05/09 04:10:14;;;;;;;14.30;2.58;;;;;;;21.68;52.41;100491.47;7311702;19;129228;-37
2022/05/09 04:12:40;;;;;;;32.67;4.32;;;;;;;21.72;52.42;100491.09;7311403;19;130366;-39
2022/05/09 04:17:50;;;;;;;12.45;2.33;;;;;;;21.73;52.56;100487.50;7315265;19;129216;-37
2022/05/09 04:20:15;;;;;;;32.90;3.78;;;;;;;21.75;52.93;100487.44;7310269;19;159087;-37
2022/05/09 04:22:41;;;;;;;13.70;2.50;;;;;;;21.72;52.22;100492.88;7312207;19;154627;-40
2022/05/09 04:25:08;;;;;;;50.28;5.53;;;;;;;21.77;52.66;100491.59;7310360;19;129222;-40
2022/05/09 04:27:33;;;;;;;11.02;2.13;;;;;;;21.74;52.35;100504.91;7313252;19;129118;-39
2022/05/09 04:29:58;;;;;;;28.48;4.10;;;;;;;21.71;52.51;100483.38;7311190;19;129415;-39
2022/05/09 04:32:24;;;;;;;16.05;2.72;;;;;;;21.74;52.26;100497.06;7310668;19;128921;-38
2022/05/09 04:34:49;;;;;;;13.43;2.15;;;;;;;21.72;52.30;100501.56;7310574;19;154973;-41
2022/05/09 04:37:14;;;;;;;21.02;3.05;;;;;;;21.74;52.81;100496.22;7309731;19;158805;-38
2022/05/09 04:39:39;;;;;;;15.05;2.33;;;;;;;21.73;52.43;100503.22;7310741;19;158774;-38
2022/05/09 04:42:05;;;;;;;30.35;4.10;;;;;;;21.74;52.44;100497.06;7309772;19;133842;-39
2022/05/09 04:44:30;;;;;;;20.55;3.08;;;;;;;21.74;52.55;100494.44;7310772;19;129309;-40
2022/05/09 04:46:56;;;;;;;20.90;2.90;;;;;;;21.72;52.44;100500.72;7311202;19;130100;-39
2022/05/09 04:49:21;;;;;;;26.42;3.47;;;;;;;21.70;52.22;100490.38;7305443;19;158541;-40
2022/05/09 04:51:46;;;;;;;17.15;2.67;;;;;;;21.66;52.74;100486.34;7309677;19;154412;-39
2022/05/09 04:54:11;;;;;;;71.38;7.75;;;;;;;21.70;52.19;100508.69;7307373;19;153691;-37
2022/05/09 04:56:37;;;;;;;21.48;3.42;;;;;;;21.69;51.97;100507.03;7311097;19;130795;-36
2022/05/09 04:59:02;;;;;;;30.23;4.07;;;;;;;21.74;52.77;100509.28;7309820;19;158663;-38
2022/05/09 05:01:27;;;;;;;27.70;3.87;;;;;;;21.71;52.87;100506.91;7308507;19;155101;-37
2022/05/09 05:03:52;;;;;;;19.00;2.77;;;;;;;21.70;51.96;100513.94;7309642;19;154064;-38
2022/05/09 05:06:18;;;;;;;25.17;3.45;;;;;;;21.68;51.63;100510.59;7308352;19;158427;-37
2022/05/09 05:08:43;;;;;;;23.85;3.78;;;;;;;21.70;52.80;100513.13;7310511;19;129760;-38
2022/05/09 05:11:08;;;;;;;17.13;2.83;;;;;;;21.71;52.59;100515.63;7309560;19;129185;-38
2022/05/09 05:13:34;;;;;;;27.45;3.90;;;;;;;21.63;52.60;100507.53;7309082;19;149558;-37
2022/05/09 05:16:00;;;;;;;20.02;3.00;;;;;;;21.65;52.76;100510.84;7310068;19;129507;-40
2022/05/09 05:18:26;;;;;;;18.48;2.80;;;;;;;21.69;52.94;100522.75;7311190;19;130431;-39
2022/05/09 05:20:52;;;;;;;;;;;;;;;21.79;52.72;100518.50;7310585;19;128862;-39
2022/05/09 05:23:18;;;;;;;28.55;3.90;;;;;;;21.69;52.28;100514.91;7309271;19;129372;-40
2022/05/09 05:25:45;;;;;;;28.13;4.13;;;;;;;21.76;52.65;100523.09;7306565;19;132034;-40
2022/05/09 05:28:14;;;;;;;29.60;3.75;;;;;;;21.74;52.39;100525.84;7310217;19;129358;-38
2022/05/09 05:30:40;;;;;;;29.23;3.60;;;;;;;21.70;52.45;100521.78;7309386;19;129752;-39
2022/05/09 05:33:06;;;;;;;12.38;2.35;;;;;;;21.75;53.06;100527.50;7308012;19;155462;-41
2022/05/09 05:35:31;;;;;;;33.22;4.90;;;;;;;21.68;53.16;100536.75;7306606;19;129403;-36
2022/05/09 05:37:57;;;;;;;21.95;3.15;;;;;;;21.70;52.96;100534.88;7310257;19;157253;-40
2022/05/09 05:40:23;;;;;;;13.10;2.55;;;;;;;21.67;51.89;100531.66;7311833;19;129481;-39
2022/05/09 05:42:49;;;;;;;21.03;2.93;;;;;;;21.67;50.94;100529.03;7310429;19;129660;-40
2022/05/09 05:45:17;;;;;;;21.00;3.23;;;;;;;21.76;52.54;100533.56;7306176;19;129414;-40
2022/05/09 05:47:42;;;;;;;30.48;4.05;;;;;;;21.77;51.44;100528.25;7308955;19;129755;-40
2022/05/09 05:50:10;;;;;;;20.42;3.63;;;;;;;21.77;52.73;100536.09;7307928;19;154691;-37
2022/05/09 05:52:36;;;;;;;27.15;4.28;;;;;;;21.80;52.63;100535.03;7306109;19;129175;-39
2022/05/09 05:55:02;;;;;;;27.13;3.80;;;;;;;21.81;52.68;100536.72;7307186;19;129234;-38
2022/05/09 05:57:31;;;;;;;28.48;4.38;;;;;;;21.75;52.24;100537.16;7307745;19;132073;-37
2022/05/09 06:00:09;;;;;;;27.40;3.80;;;;;;;21.70;52.68;100544.53;7310471;19;129057;-39
2022/05/09 06:02:37;;;;;;;69.40;8.68;;;;;;;21.61;51.04;100525.13;7297836;19;130897;-38
2022/05/09 06:05:03;;;;;;;36.15;4.43;;;;;;;21.78;50.65;100535.13;7302262;19;131451;-39
2022/05/09 06:07:28;;;;;;;26.98;4.28;;;;;;;21.81;51.34;100547.19;7310607;19;131377;-38
2022/05/09 06:09:54;;;;;;;25.85;3.47;;;;;;;21.80;51.70;100541.09;7314562;19;155335;-38
2022/05/09 06:12:21;;;;;;;20.67;3.28;;;;;;;21.73;51.74;100549.53;7308642;19;154210;-39
2022/05/09 06:15:24;;;;;;;37.88;5.25;;;;;;;21.71;51.88;100552.25;7312569;19;129253;-38
2022/05/09 06:17:37;;;;;;;28.75;4.30;;;;;;;21.71;52.02;100552.25;7315126;19;130194;-39
2022/05/09 06:20:07;;;;;;;28.27;3.85;;;;;;;21.72;52.25;100553.91;7315451;19;129525;-39
2022/05/09 06:22:36;;;;;;;30.48;3.95;;;;;;;21.73;52.13;100552.13;7314194;19;130047;-39
2022/05/09 06:25:01;;;;;;;21.58;2.92;;;;;;;21.71;52.62;100554.03;7311972;19;130264;-38
2022/05/09 06:27:27;;;;;;;38.83;5.15;;;;;;;21.70;52.10;100555.00;7314819;19;130821;-38
2022/05/09 06:29:52;;;;;;;30.90;4.38;;;;;;;21.70;52.20;100555.00;7316380;19;129169;-39
2022/05/09 06:32:19;;;;;;;15.05;2.47;;;;;;;21.70;52.22;100555.00;7315416;19;129449;-38
2022/05/09 06:34:45;;;;;;;33.53;4.65;;;;;;;21.71;52.09;100554.03;7312344;19;130259;-39
2022/05/09 06:37:10;;;;;;;17.00;2.90;;;;;;;21.68;52.25;100551.66;7315715;19;129415;-39
2022/05/09 06:39:35;;;;;;;21.73;3.45;;;;;;;21.68;52.41;100552.47;7317428;19;129203;-40
2022/05/09 06:42:03;;;;;;;22.15;3.30;;;;;;;21.72;52.12;100553.06;7315151;19;153938;-39
2022/05/09 06:44:29;;;;;;;28.60;4.00;;;;;;;21.74;52.21;100551.19;7311061;19;129582;-40
2022/05/09 06:46:54;;;;;;;28.42;4.03;;;;;;;21.71;51.91;100557.50;7313375;19;158537;-38
2022/05/09 06:49:20;;;;;;;13.73;2.67;;;;;;;21.73;52.67;100555.56;7314860;19;155623;-38
2022/05/09 06:51:46;;;;;;;21.35;2.95;;;;;;;21.72;51.45;100551.28;7313772;19;129473;-39
2022/05/09 06:54:11;;;;;;;21.65;3.10;;;;;;;21.72;52.33;100553.91;7312484;19;147171;-40
2022/05/09 06:56:36;;;;;;;33.20;4.15;;;;;;;21.63;52.20;100549.41;7313021;19;158579;-38
2022/05/09 06:59:01;;;;;;;41.05;5.43;;;;;;;21.72;52.26;100560.91;7312628;19;154634;-38
2022/05/09 07:01:27;;;;;;;24.17;3.80;;;;;;;21.68;52.28;100562.94;7312096;19;153700;-39
2022/05/09 07:03:52;;;;;;;28.45;3.53;;;;;;;21.69;52.24;100556.78;7312717;19;158956;-38
2022/05/09 07:06:17;;;;;;;30.60;4.40;;;;;;;21.70;52.31;100555.81;7311155;19;150852;-39
2022/05/09 07:08:43;;;;;;;25.42;3.50;;;;;;;21.70;52.18;100561.03;7311442;19;155063;-39
2022/05/09 07:11:11;;;;;;;38.33;5.05;;;;;;;21.73;52.50;100562.59;7311737;19;130873;-38
2022/05/09 07:13:36;;;;;;;29.88;4.35;;;;;;;21.67;51.97;100544.72;7312723;19;130806;-37
2022/05/09 07:16:03;;;;;;;17.08;3.20;;;;;;;21.74;52.22;100557.25;7310963;19;130343;-39
2022/05/09 07:18:28;;;;;;;29.95;4.43;;;;;;;21.73;52.77;100560.00;7313415;19;130119;-37
2022/05/09 07:20:57;;;;;;;24.23;3.33;;;;;;;21.75;52.48;100564.13;7315191;19;129667;-38
2022/05/09 07:23:23;;;;;;;20.45;3.08;;;;;;;21.75;52.74;100563.34;7314514;19;129200;-38
2022/05/09 07:25:51;;;;;;;17.95;2.72;;;;;;;21.75;52.58;100558.09;7313529;19;130279;-38
2022/05/09 07:28:21;;;;;;;32.13;4.18;;;;;;;21.65;51.72;100550.09;7309430;19;129630;-39
2022/05/09 07:30:46;;;;;;;17.90;2.65;;;;;;;21.70;52.39;100555.81;7315664;19;129789;-39
2022/05/09 07:33:14;;;;;;;114.28;13.13;;;;;;;21.70;52.63;100555.81;7308925;19;130570;-37
2022/05/09 07:35:41;;;;;;;22.27;3.60;;;;;;;21.69;53.00;100551.53;7312500;19;129730;-39
2022/05/09 07:38:07;;;;;;;32.58;4.43;;;;;;;21.70;53.12;100549.75;7314079;19;129478;-39
2022/05/09 07:40:32;;;;;;;10.90;2.50;;;;;;;21.75;52.72;100558.91;7314779;19;128788;-40
2022/05/09 07:42:58;;;;;;;23.40;3.25;;;;;;;21.69;52.16;100559.38;7310080;19;146285;-38
2022/05/09 07:45:24;;;;;;;47.38;5.85;;;;;;;21.74;52.84;100559.03;7305835;19;131392;-40
2022/05/09 07:47:49;;;;;;;25.35;3.05;;;;;;;21.71;52.16;100559.25;7312946;19;154464;-38
2022/05/09 07:50:16;;;;;;;22.98;3.45;;;;;;;21.74;52.42;100557.25;7312587;19;154463;-40
2022/05/09 07:52:42;;;;;;;16.80;2.50;;;;;;;21.74;52.32;100559.88;7308676;19;129762;-38
2022/05/09 07:55:09;;;;;;;32.87;4.10;;;;;;;21.64;52.30;100540.59;7310639;19;131128;-37
2022/05/09 07:57:35;;;;;;;25.75;3.70;;;;;;;21.73;52.78;100562.59;7310466;19;128993;-39
2022/05/09 08:00:00;;;;;;;27.02;4.28;;;;;;;21.73;51.88;100554.75;7314003;19;142698;-39
2022/05/09 08:02:25;;;;;;;24.30;3.38;;;;;;;21.73;52.53;100558.19;7313514;19;132606;-40
2022/05/09 08:04:51;;;;;;;28.33;3.83;;;;;;;21.75;52.62;100553.66;7312431;19;130436;-38
2022/05/09 08:07:17;;;;;;;21.73;3.20;;;;;;;21.71;52.50;100552.25;7310428;19;155541;-38
2022/05/09 08:09:42;;;;;;;20.25;2.95;;;;;;;21.70;52.25;100550.56;7313428;19;130724;-38
2022/05/09 08:12:08;;;;;;;25.17;3.55;;;;;;;21.62;52.87;100550.31;7310553;19;131074;-39
2022/05/09 08:14:34;;;;;;;39.83;5.50;;;;;;;21.60;53.13;100552.22;7308739;19;130714;-38
2022/05/09 08:17:00;;;;;;;20.98;3.13;;;;;;;21.65;52.14;100539.63;7313725;19;129974;-39
2022/05/09 08:19:29;;;;;;;;;;;;;;;21.80;53.01;100546.34;7315894;19;129388;-39
2022/05/09 08:21:54;;;;;;;25.67;3.42;;;;;;;21.65;51.89;100529.16;7311216;19;130243;-38
2022/05/09 08:24:19;;;;;;;16.10;2.47;;;;;;;21.72;52.80;100538.22;7309941;19;150591;-37
2022/05/09 08:26:45;;;;;;;35.97;4.40;;;;;;;21.71;51.71;100539.16;7309114;19;130525;-38
2022/05/09 08:29:10;;;;;;;24.57;3.10;;;;;;;21.68;52.73;100536.75;7311090;19;154820;-39
2022/05/09 08:31:36;;;;;;;19.00;2.95;;;;;;;21.56;52.09;100522.03;7313326;19;130549;-37
2022/05/09 08:34:01;;;;;;;20.83;3.15;;;;;;;21.67;52.58;100532.50;7310416;19;159508;-38
2022/05/09 08:39:22;;;;;;;17.27;2.55;;;;;;;21.69;51.82;100533.22;7312397;19;130260;-42
2022/05/09 08:41:54;;;;;;;31.00;3.70;;;;;;;21.73;53.38;100539.88;7312568;19;129470;-37
2022/05/09 08:44:24;;;;;;;18.05;2.42;;;;;;;21.56;53.14;100537.72;7310582;19;131393;-37
2022/05/09 08:46:49;;;;;;;29.25;3.88;;;;;;;21.41;53.02;100517.09;7312643;19;128858;-37
2022/05/09 08:49:45;;;;;;;20.73;2.73;;;;;;;21.53;53.14;100517.03;7311497;19;154843;-39
2022/05/09 08:52:23;;;;;;;19.63;3.03;;;;;;;21.54;53.60;100529.16;7311918;19;131316;-39
2022/05/09 08:54:50;;;;;;;25.70;3.45;;;;;;;21.42;52.75;100535.31;7309337;19;129297;-39
2022/05/09 08:57:20;;;;;;;11.45;2.08;;;;;;;21.38;54.57;100518.19;7312066;19;129283;-37
2022/05/09 09:00:01;;;;;;;56.65;7.47;;;;;;;21.51;53.92;100524.16;7308720;19;129516;-37
2022/05/09 09:02:34;;;;;;;34.35;4.25;;;;;;;21.53;53.31;100519.66;7311999;19;131300;-37
2022/05/09 09:05:03;;;;;;;18.40;3.05;;;;;;;21.52;53.23;100531.03;7306143;19;132228;-37
2022/05/09 09:07:38;;;;;;;16.13;2.47;;;;;;;21.61;53.55;100527.75;7311460;19;129714;-40
2022/05/09 09:10:30;;;;;;;27.15;3.90;;;;;;;21.68;53.20;100528.91;7311987;19;129164;-40
2022/05/09 09:13:04;;;;;;;26.80;3.17;;;;;;;21.65;53.53;100528.34;7310239;19;129574;-37
2022/05/09 09:15:55;;;;;;;30.98;4.38;;;;;;;21.59;53.49;100506.06;7308744;19;129964;-37
2022/05/09 09:18:47;;;;;;;21.23;3.15;;;;;;;21.71;53.73;100520.84;7312961;19;129840;-37
2022/05/09 09:21:45;;;;;;;37.72;4.40;;;;;;;21.63;53.60;100533.69;7311492;19;131378;-37
2022/05/09 09:24:27;;;;;;;22.23;3.53;;;;;;;21.58;53.55;100522.75;7310286;19;130162;-37
2022/05/09 09:27:05;;;;;;;30.40;3.88;;;;;;;21.68;53.80;100528.91;7310134;19;129623;-37
2022/05/09 09:29:40;;;;;;;20.33;3.20;;;;;;;21.66;53.93;100520.38;7311451;19;129146;-37
2022/05/09 09:32:11;;;;;;;29.45;3.80;;;;;;;21.70;53.41;100521.78;7309903;19;129039;-37
2022/05/09 09:35:08;;;;;;;29.48;4.25;;;;;;;21.71;53.69;100533.94;7309756;19;130381;-37
2022/05/09 09:37:44;;;;;;;33.88;4.40;;;;;;;21.67;53.12;100532.50;7309754;19;131586;-37
2022/05/09 09:40:10;;;;;;;24.30;3.53;;;;;;;21.64;52.73;100519.66;7307401;19;129122;-37
2022/05/09 09:42:36;;;;;;;28.65;3.72;;;;;;;21.70;53.00;100523.59;7308500;19;129920;-37
2022/05/09 09:45:14;;;;;;;24.33;3.20;;;;;;;21.71;53.73;100520.00;7308807;19;130107;-37
2022/05/09 09:47:40;;;;;;;23.55;3.15;;;;;;;21.60;53.71;100526.06;7310735;19;132642;-37
2022/05/09 09:50:25;;;;;;;29.40;4.10;;;;;;;21.70;53.62;100524.41;7310440;19;129784;-37
2022/05/09 09:52:53;;;;;;;23.30;3.10;;;;;;;21.36;46.03;100525.31;7308957;19;129123;-37
2022/05/09 09:55:34;;;;;;;32.72;4.22;;;;;;;20.90;46.38;100515.72;7307075;19;129070;-37
2022/05/09 09:58:19;;;;;;;23.88;3.25;;;;;;;20.83;46.25;100510.13;7310054;19;129793;-37
2022/05/09 10:00:45;;;;;;;17.55;3.03;;;;;;;20.86;46.33;100509.06;7311141;19;130111;-37
2022/05/09 10:03:20;;;;;;;32.25;3.92;;;;;;;20.94;46.55;100510.16;7309877;19;129695;-38
2022/05/09 10:05:46;;;;;;;7.95;1.85;;;;;;;20.98;46.43;100509.03;7310810;19;130189;-39
2022/05/09 10:08:28;;;;;;;21.55;3.08;;;;;;;20.93;46.43;100505.88;7310864;19;129200;-39
2022/05/09 10:11:09;;;;;;;10.38;2.10;;;;;;;21.06;45.75;100504.06;7309613;19;129066;-39
2022/05/09 10:13:37;;;;;;;33.42;3.85;;;;;;;21.06;46.21;100511.06;7306927;19;129636;-39
2022/05/09 10:16:08;;;;;;;25.27;3.22;;;;;;;21.07;46.72;100513.59;7307980;19;130568;-38
2022/05/09 10:18:34;;;;;;;26.73;3.58;;;;;;;21.13;46.62;100505.28;7308236;19;130401;-39
2022/05/09 10:21:10;;;;;;;21.52;2.83;;;;;;;21.13;46.07;100505.28;7310303;19;129691;-39
2022/05/09 10:26:31;;;;;;;28.92;3.45;;;;;;;21.17;46.34;100500.66;7309574;19;129492;-39
2022/05/09 10:28:59;;;;;;;14.80;2.45;;;;;;;21.08;45.40;100478.63;7311022;19;139566;-40
2022/05/09 10:31:35;;;;;;;27.10;3.58;;;;;;;21.22;45.82;100507.19;7308954;19;129162;-40
2022/05/09 10:34:06;;;;;;;20.60;2.90;;;;;;;21.25;45.51;100500.91;7302662;19;154395;-40
2022/05/09 10:36:41;;;;;;;26.48;3.50;;;;;;;21.27;45.17;100499.84;7308509;19;129160;-40
2022/05/09 10:39:13;;;;;;;22.25;3.13;;;;;;;21.29;45.35;100491.88;7309513;19;129351;-40
2022/05/09 10:41:43;;;;;;;28.33;3.67;;;;;;;21.31;45.85;100488.19;7308642;19;128942;-41
2022/05/09 10:44:19;;;;;;;36.67;4.30;;;;;;;21.25;45.51;100490.44;7306747;19;129201;-39
2022/05/09 10:46:54;;;;;;;25.38;3.33;;;;;;;21.62;47.65;100487.53;7304862;19;129725;-39
2022/05/09 10:49:29;;;;;;;28.52;3.40;;;;;;;22.18;47.35;100474.44;7303183;19;131263;-38
2022/05/09 10:52:13;;;;;;;31.10;3.97;;;;;;;22.66;46.42;100484.44;7308107;19;130076;-41
2022/05/09 10:54:47;;;;;;;29.73;3.90;;;;;;;22.98;46.33;100476.56;7313257;19;130391;-40
2022/05/09 10:57:39;;;;;;;21.13;3.03;;;;;;;23.29;45.77;100480.13;7314413;19;129117;-40
2022/05/09 11:00:22;;;;;;;24.67;3.25;;;;;;;23.57;45.01;100472.38;7313348;19;130348;-39
2022/05/09 11:03:00;;;;;;;32.90;3.97;;;;;;;23.65;44.69;100453.38;7314479;19;128934;-39
2022/05/09 11:05:28;;;;;;;;;;;;;;;23.81;44.35;100459.78;7312428;19;129314;-38
2022/05/09 11:08:28;;;;;;;20.98;2.42;;;;;;;23.98;44.40;100474.91;7312868;19;130334;-37
2022/05/09 11:11:08;;;;;;;19.85;2.42;;;;;;;24.12;44.00;100457.97;7310658;19;129708;-37
2022/05/09 11:13:53;;;;;;;17.33;2.53;;;;;;;24.28;44.36;100456.47;7313822;19;129022;-38
2022/05/09 11:16:26;;;;;;;19.45;2.33;;;;;;;24.40;43.47;100447.50;7315350;19;128942;-40
2022/05/09 11:19:04;;;;;;;13.48;1.95;;;;;;;24.42;43.75;100453.47;7313981;19;131328;-40
2022/05/09 11:21:52;;;;;;;31.00;3.97;;;;;;;24.53;44.11;100451.66;7311758;19;129365;-37
2022/05/09 11:24:42;;;;;;;24.35;3.33;;;;;;;24.58;43.91;100444.19;7313192;19;129416;-40
2022/05/09 11:27:26;;;;;;;22.15;2.63;;;;;;;24.69;44.23;100452.81;7315845;19;129165;-39
2022/05/09 11:30:22;;;;;;;20.15;2.63;;;;;;;24.74;43.62;100445.34;7312744;19;158525;-38
2022/05/09 11:32:57;;;;;;;24.23;2.80;;;;;;;24.80;43.63;100443.94;7314416;19;129457;-40